Emmer-Compascuum, Netherlands
Current Conditions -  °F | °C
As of 9:25 AM on Thursday 18 Dec 2014 (Local Time) from EHGG Reporting Station
Haze Haze  
Wind Chill: 50°   Ceiling: 400
Heat Index: 50°   Visibility: 3mi
Dew Point: 50°   Wind: 13mph
Humidity: 100%   Direction: 220°SW
Pressure: 29.71"   Gusts: NA
Location:  52.81°N, 7.05°E
Report Text: EHGG 180825Z AUTO 22011KT 4900 BR OVC004 10/10 Q1006 TEMPO2500
Loading
Personal Weather Stations






























Interactive Weather Map New forecast layout! Learn more

10-Day Weather Forecast

Advertisements
Track Severe Weather on mobile